Time;durP1;ratioP1;P1;durP2;ratioP2;P2;SDS_P1;SDS_P2;PMS_P1;PMS_P2;Temp;Humidity;BMP_temperature;BMP_pressure;BME280_temperature;BME280_humidity;BME280_pressure;Samples;Min_cycle;Max_cycle;Signal;HPM_P1;HPM_P2
2022/12/09 00:00:21;;;;;;;22.58;12.15;;;-0.70;99.90;;;;;;6150074;23;20053;-82
2022/12/09 00:02:47;;;;;;;24.45;13.52;;;-0.70;99.90;;;;;;6146611;23;20022;-82
2022/12/09 00:05:13;;;;;;;23.63;11.95;;;-0.70;99.90;;;;;;6149626;23;20089;-82
2022/12/09 00:07:38;;;;;;;21.17;9.80;;;0.10;99.90;;;;;;6147679;23;20021;-83
2022/12/09 00:10:04;;;;;;;20.90;10.65;;;-0.70;99.90;;;;;;6122120;23;20014;-82
2022/12/09 00:12:30;;;;;;;20.13;10.57;;;-0.70;99.90;;;;;;6150188;23;20059;-82
2022/12/09 00:14:56;;;;;;;24.25;9.60;;;0.10;99.90;;;;;;6150836;23;20040;-82
2022/12/09 00:17:21;;;;;;;21.23;10.75;;;-0.80;99.90;;;;;;6145880;23;20395;-82
2022/12/09 00:19:47;;;;;;;18.80;9.60;;;-0.70;99.90;;;;;;6146414;23;20461;-82
2022/12/09 00:22:13;;;;;;;20.98;10.48;;;-0.80;99.90;;;;;;6150393;23;20021;-82
2022/12/09 00:24:38;;;;;;;19.00;8.73;;;-0.80;99.90;;;;;;6146258;23;20014;-82
2022/12/09 00:27:04;;;;;;;17.80;9.27;;;-0.80;99.90;;;;;;6146937;23;20017;-82
2022/12/09 00:29:30;;;;;;;22.75;8.25;;;-0.80;99.90;;;;;;6146681;23;20018;-82
2022/12/09 00:31:55;;;;;;;17.05;9.45;;;-0.90;99.90;;;;;;6146869;23;20014;-82
2022/12/09 00:34:21;;;;;;;23.65;14.18;;;-0.90;99.90;;;;;;6149203;23;20425;-82
2022/12/09 00:36:47;;;;;;;19.98;10.07;;;-0.90;99.90;;;;;;6148308;23;20056;-82
2022/12/09 00:39:13;;;;;;;21.52;10.30;;;-0.90;99.90;;;;;;6148459;23;20068;-82
2022/12/09 00:41:38;;;;;;;17.40;9.32;;;-1.00;99.90;;;;;;6148675;23;20049;-82
2022/12/09 00:44:04;;;;;;;19.55;8.45;;;-1.00;99.90;;;;;;6148448;23;20010;-82
2022/12/09 00:46:30;;;;;;;19.50;9.43;;;-1.00;99.90;;;;;;6150094;23;20084;-82
2022/12/09 00:48:56;;;;;;;17.05;8.90;;;-1.00;99.90;;;;;;6148780;23;20036;-82
2022/12/09 00:51:23;;;;;;;18.30;9.32;;;-1.00;99.90;;;;;;6150756;23;20017;-82
2022/12/09 00:53:54;;;;;;;16.83;8.18;;;-1.00;99.90;;;;;;6148641;23;20017;-82
2022/12/09 00:56:23;;;;;;;16.90;8.32;;;-1.00;99.90;;;;;;6123398;23;20013;-82
2022/12/09 00:58:48;;;;;;;17.58;8.30;;;-1.00;99.90;;;;;;6123906;23;20013;-82
2022/12/09 01:01:14;;;;;;;17.17;8.13;;;-1.10;99.90;;;;;;6150976;23;20017;-81
2022/12/09 01:03:39;;;;;;;21.52;8.98;;;-1.10;99.90;;;;;;6149832;23;20357;-82
2022/12/09 01:06:19;;;;;;;19.10;9.30;;;-1.00;99.90;;;;;;6150484;23;20018;-81
2022/12/09 01:08:45;;;;;;;16.65;8.32;;;-1.10;99.90;;;;;;6173439;23;20029;-81
2022/12/09 01:11:15;;;;;;;18.35;8.35;;;-1.00;99.90;;;;;;6150826;23;20045;-81
2022/12/09 01:13:41;;;;;;;17.42;9.25;;;-1.00;99.90;;;;;;6148599;23;20093;-81
2022/12/09 01:16:19;;;;;;;20.00;9.30;;;-1.00;99.90;;;;;;6151095;23;20048;-81
2022/12/09 01:18:45;;;;;;;18.75;8.23;;;-0.90;99.90;;;;;;6150441;23;20093;-81
2022/12/09 01:21:12;;;;;;;21.08;8.90;;;-0.90;99.90;;;;;;6148879;23;20017;-81
2022/12/09 01:23:37;;;;;;;18.92;8.27;;;-0.90;99.90;;;;;;6150500;23;20084;-81
2022/12/09 01:26:05;;;;;;;19.60;9.73;;;-0.90;99.90;;;;;;6148869;23;20060;-81
2022/12/09 01:28:32;;;;;;;18.42;9.00;;;-0.90;99.90;;;;;;6148348;23;20021;-81
2022/12/09 01:31:07;;;;;;;18.55;8.75;;;-0.90;99.90;;;;;;6149419;23;20033;-81
2022/12/09 01:33:33;;;;;;;18.88;8.93;;;-0.90;99.90;;;;;;6150398;23;20039;-81
2022/12/09 01:35:58;;;;;;;16.67;8.63;;;-0.90;99.90;;;;;;6150690;23;20009;-81
2022/12/09 01:38:24;;;;;;;17.20;7.68;;;-0.90;99.90;;;;;;6150907;23;20013;-81
2022/12/09 01:40:50;;;;;;;17.50;8.27;;;-0.90;99.90;;;;;;6148554;23;20380;-81
2022/12/09 01:43:18;;;;;;;18.20;9.25;;;-0.80;99.90;;;;;;6149839;23;20238;-82
2022/12/09 01:45:43;;;;;;;17.67;8.77;;;-0.80;99.90;;;;;;6148968;23;20013;-81
2022/12/09 01:48:15;;;;;;;18.75;9.02;;;-0.80;99.90;;;;;;6150452;23;20126;-81
2022/12/09 01:50:49;;;;;;;18.65;8.70;;;-0.80;99.90;;;;;;6149022;23;20018;-82
2022/12/09 01:53:16;;;;;;;;;;;-0.70;99.90;;;;;;6151450;23;20084;-81
2022/12/09 01:55:41;;;;;;;17.02;8.15;;;-0.70;99.90;;;;;;6147989;23;19916;-82
2022/12/09 01:58:08;;;;;;;17.05;8.95;;;-0.60;99.90;;;;;;6148003;23;20028;-82
2022/12/09 02:00:34;;;;;;;17.02;8.20;;;-0.70;99.90;;;;;;6150471;23;20056;-82
2022/12/09 02:03:01;;;;;;;21.13;8.65;;;-0.60;99.90;;;;;;6173759;23;20014;-81
2022/12/09 02:05:29;;;;;;;17.50;8.55;;;-0.60;99.90;;;;;;6172991;23;20056;-81
2022/12/09 02:07:54;;;;;;;18.73;9.10;;;-0.60;99.90;;;;;;6148313;23;20040;-82
2022/12/09 02:10:21;;;;;;;17.13;8.05;;;-0.60;99.90;;;;;;6148427;23;20029;-81
2022/12/09 02:13:13;;;;;;;21.35;9.02;;;-0.50;99.90;;;;;;6149614;23;20036;-81
2022/12/09 02:15:44;;;;;;;25.65;8.88;;;-0.50;99.90;;;;;;6149939;23;20048;-82
2022/12/09 02:18:20;;;;;;;17.85;8.73;;;-0.50;99.90;;;;;;6148428;23;20022;-81
2022/12/09 02:21:01;;;;;;;18.20;8.93;;;-0.50;99.90;;;;;;6150439;23;20021;-81
2022/12/09 02:23:40;;;;;;;18.10;8.60;;;-0.50;99.90;;;;;;6150322;23;20088;-81
2022/12/09 02:26:30;;;;;;;16.40;8.43;;;-0.50;99.90;;;;;;6150069;23;20017;-81
2022/12/09 02:29:11;;;;;;;16.05;7.32;;;-0.50;99.90;;;;;;6149151;23;20464;-81
2022/12/09 02:31:46;;;;;;;17.85;8.60;;;-0.50;99.90;;;;;;6147760;23;20461;-82
2022/12/09 02:34:18;;;;;;;20.25;8.95;;;-0.50;99.90;;;;;;6150656;23;20045;-81
2022/12/09 02:37:09;;;;;;;20.70;8.90;;;-0.50;99.90;;;;;;6149135;23;20033;-82
2022/12/09 02:39:52;;;;;;;16.40;8.57;;;-0.60;99.90;;;;;;6148435;23;20446;-82
2022/12/09 02:42:21;;;;;;;17.73;8.90;;;-0.60;99.90;;;;;;6149098;23;20469;-81
2022/12/09 02:44:49;;;;;;;18.52;7.90;;;-0.60;99.90;;;;;;6148265;23;20025;-81
2022/12/09 02:47:18;;;;;;;21.50;9.40;;;-0.60;99.90;;;;;;6149965;23;20017;-82
2022/12/09 02:49:47;;;;;;;18.95;8.60;;;-0.60;99.90;;;;;;6147286;23;20013;-81
2022/12/09 02:52:13;;;;;;;21.48;9.73;;;-0.20;99.90;;;;;;6150133;23;20022;-82
2022/12/09 02:54:40;;;;;;;19.02;8.55;;;-0.60;99.90;;;;;;6148336;23;20017;-81
2022/12/09 02:57:18;;;;;;;20.80;9.48;;;0.10;99.90;;;;;;6148455;23;20014;-81
2022/12/09 02:59:44;;;;;;;17.10;9.25;;;-0.60;99.90;;;;;;6148421;23;20390;-81
2022/12/09 03:02:12;;;;;;;19.27;9.25;;;-0.60;99.90;;;;;;6147989;23;20053;-81
2022/12/09 03:04:41;;;;;;;21.83;9.02;;;-0.60;99.90;;;;;;6148624;23;20034;-81
2022/12/09 03:07:28;;;;;;;17.92;8.52;;;-0.50;99.90;;;;;;6148636;23;20017;-81
2022/12/09 03:10:06;;;;;;;19.48;9.35;;;-0.50;99.90;;;;;;6147265;23;20387;-81
2022/12/09 03:12:33;;;;;;;20.95;9.48;;;-0.50;99.90;;;;;;6148365;23;20033;-81
2022/12/09 03:15:02;;;;;;;21.83;9.15;;;-0.50;99.90;;;;;;6149105;23;20285;-81
2022/12/09 03:17:34;;;;;;;19.13;9.38;;;-0.50;99.90;;;;;;6149292;23;20028;-81
2022/12/09 03:20:08;;;;;;;21.98;9.60;;;-0.50;99.90;;;;;;6147410;23;20351;-81
2022/12/09 03:22:34;;;;;;;18.70;8.30;;;-0.50;99.90;;;;;;6147000;23;20093;-81
2022/12/09 03:25:03;;;;;;;17.77;8.85;;;-0.50;99.90;;;;;;6146464;23;20024;-81
2022/12/09 03:27:35;;;;;;;21.83;9.35;;;-0.40;99.90;;;;;;6149537;23;20013;-81
2022/12/09 03:30:03;;;;;;;17.63;8.63;;;-0.50;99.90;;;;;;6148908;23;20459;-81
2022/12/09 03:32:30;;;;;;;17.85;8.45;;;-0.50;99.90;;;;;;6150451;23;20079;-81
2022/12/09 03:35:07;;;;;;;21.52;9.30;;;-0.60;99.90;;;;;;6150810;23;20092;-81
2022/12/09 03:37:36;;;;;;;20.50;9.52;;;-0.60;99.90;;;;;;6152053;23;20021;-81
2022/12/09 03:40:06;;;;;;;20.40;10.18;;;-0.70;99.90;;;;;;6124538;23;20014;-82
2022/12/09 03:43:02;;;;;;;22.65;9.90;;;-0.70;99.90;;;;;;6149054;23;20021;-81
2022/12/09 03:45:28;;;;;;;20.55;9.02;;;-0.70;99.90;;;;;;6150956;23;20380;-81
2022/12/09 03:47:54;;;;;;;21.52;9.68;;;0.30;99.90;;;;;;6151531;23;20440;-81
2022/12/09 03:50:22;;;;;;;21.58;9.55;;;-0.80;99.90;;;;;;6150114;23;20021;-81
2022/12/09 03:52:52;;;;;;;22.30;9.93;;;-0.90;99.90;;;;;;6149238;23;20480;-81
2022/12/09 03:55:31;;;;;;;21.58;10.77;;;-0.90;99.90;;;;;;6149572;23;20093;-81
2022/12/09 03:57:59;;;;;;;23.08;10.30;;;-0.90;99.90;;;;;;6149631;23;20021;-81
2022/12/09 04:00:25;;;;;;;26.77;10.82;;;-0.90;99.90;;;;;;6149911;23;20013;-81
2022/12/09 04:02:51;;;;;;;18.90;8.98;;;-1.00;99.90;;;;;;6149923;23;20437;-82
2022/12/09 04:05:17;;;;;;;26.17;10.20;;;-1.00;99.90;;;;;;6148571;23;20010;-82
2022/12/09 04:07:43;;;;;;;26.23;10.55;;;-1.00;99.90;;;;;;6124274;23;20327;-82
2022/12/09 04:10:08;;;;;;;19.23;8.88;;;-1.00;99.90;;;;;;6149656;23;20022;-82
2022/12/09 04:12:34;;;;;;;22.05;10.02;;;-1.00;99.90;;;;;;6151303;23;20513;-81
2022/12/09 04:15:00;;;;;;;23.45;11.45;;;-1.00;99.90;;;;;;6149416;23;20037;-81
2022/12/09 04:17:25;;;;;;;22.95;10.15;;;-1.10;99.90;;;;;;6149656;23;20348;-81
2022/12/09 04:19:51;;;;;;;22.48;10.77;;;-1.10;99.90;;;;;;6149569;23;20089;-82
2022/12/09 04:22:17;;;;;;;22.02;9.30;;;-1.10;99.90;;;;;;6150398;23;20405;-81
2022/12/09 04:24:42;;;;;;;22.30;9.35;;;-1.20;99.90;;;;;;6150475;23;20089;-81
2022/12/09 04:27:10;;;;;;;25.40;11.40;;;-1.20;99.90;;;;;;6151287;23;20014;-82
2022/12/09 04:29:36;;;;;;;23.08;10.07;;;-1.20;99.90;;;;;;6149043;23;20026;-81
2022/12/09 04:32:02;;;;;;;24.02;10.63;;;-1.20;99.90;;;;;;6151428;23;20014;-82
2022/12/09 04:34:28;;;;;;;22.85;10.18;;;-1.20;99.90;;;;;;6149344;23;20685;-81
2022/12/09 04:36:54;;;;;;;24.05;10.38;;;-1.20;99.90;;;;;;6148870;23;20107;-81
2022/12/09 04:39:19;;;;;;;22.35;10.02;;;-1.20;99.90;;;;;;6151029;23;20445;-81
2022/12/09 04:41:45;;;;;;;23.00;10.05;;;-1.20;99.90;;;;;;6148826;23;20013;-81
2022/12/09 04:44:11;;;;;;;21.55;9.90;;;-0.90;99.90;;;;;;6150309;23;20041;-81
2022/12/09 04:46:36;;;;;;;22.50;10.70;;;-1.30;99.90;;;;;;6124782;23;20022;-81
2022/12/09 04:49:02;;;;;;;23.13;10.48;;;-1.30;99.90;;;;;;6149461;23;20017;-81
2022/12/09 04:51:28;;;;;;;21.45;9.85;;;-1.30;99.90;;;;;;6148729;23;20028;-81
2022/12/09 04:53:53;;;;;;;20.98;9.45;;;-1.30;99.90;;;;;;6148960;23;20017;-80
2022/12/09 04:56:20;;;;;;;25.17;11.30;;;-1.30;99.90;;;;;;6149560;23;20437;-81
2022/12/09 04:58:48;;;;;;;20.65;10.07;;;-1.30;99.90;;;;;;6173189;23;20419;-81
2022/12/09 05:01:16;;;;;;;22.42;11.07;;;-1.40;99.90;;;;;;6149044;23;20013;-81
2022/12/09 05:03:42;;;;;;;21.23;9.65;;;-1.40;99.90;;;;;;6151031;23;20080;-81
2022/12/09 05:06:11;;;;;;;19.25;9.00;;;-1.40;99.90;;;;;;6150085;23;20092;-81
2022/12/09 05:08:38;;;;;;;24.30;10.00;;;-1.40;99.90;;;;;;6149248;23;20021;-81
2022/12/09 05:11:04;;;;;;;17.98;9.20;;;-1.50;99.90;;;;;;6149721;23;20045;-81
2022/12/09 05:13:30;;;;;;;22.52;9.77;;;-1.50;99.90;;;;;;6149051;23;20075;-80
2022/12/09 05:16:00;;;;;;;19.75;9.55;;;-1.60;99.90;;;;;;6149102;23;20022;-81
2022/12/09 05:18:27;;;;;;;20.60;10.10;;;-1.60;99.90;;;;;;6149541;23;20444;-81
2022/12/09 05:20:53;;;;;;;21.13;10.98;;;-1.60;99.90;;;;;;6123263;23;20025;-81
2022/12/09 05:23:18;;;;;;;22.48;10.77;;;-1.60;99.90;;;;;;6150304;23;20044;-81
2022/12/09 05:25:44;;;;;;;21.08;9.93;;;-1.60;99.90;;;;;;6150433;23;20021;-81
2022/12/09 05:28:10;;;;;;;21.92;10.05;;;-1.60;99.90;;;;;;6150386;23;20013;-81
2022/12/09 05:30:36;;;;;;;20.98;9.75;;;-1.70;99.90;;;;;;6147457;23;20029;-81
2022/12/09 05:33:02;;;;;;;24.13;10.80;;;-1.70;99.90;;;;;;6150009;23;20055;-81
2022/12/09 05:35:27;;;;;;;24.92;10.05;;;-1.70;99.90;;;;;;6148395;23;20088;-81
2022/12/09 05:37:53;;;;;;;23.85;10.00;;;-1.70;99.90;;;;;;6148521;23;20531;-81
2022/12/09 05:40:19;;;;;;;22.45;10.63;;;-1.70;99.90;;;;;;6148702;23;20022;-81
2022/12/09 05:42:44;;;;;;;22.40;10.50;;;-1.70;99.90;;;;;;6148903;23;20076;-81
2022/12/09 05:45:10;;;;;;;25.27;11.50;;;-1.80;99.90;;;;;;6150741;23;20014;-81
2022/12/09 05:47:36;;;;;;;27.63;11.25;;;-1.80;99.90;;;;;;6173891;23;20017;-81
2022/12/09 05:50:06;;;;;;;24.58;10.77;;;-1.80;99.90;;;;;;6148126;23;20105;-81
2022/12/09 05:52:34;;;;;;;24.10;11.30;;;-1.80;99.90;;;;;;6148547;23;20018;-81
2022/12/09 05:55:03;;;;;;;21.35;10.68;;;-1.80;99.90;;;;;;6123573;23;20017;-81
2022/12/09 05:57:29;;;;;;;22.10;11.15;;;-1.80;99.90;;;;;;6147736;23;20044;-81
2022/12/09 05:59:54;;;;;;;25.05;12.23;;;-1.80;99.90;;;;;;6150060;23;20092;-81
2022/12/09 06:02:20;;;;;;;22.67;11.05;;;-1.90;99.90;;;;;;6148387;23;20014;-81
2022/12/09 06:04:46;;;;;;;23.75;10.18;;;-1.90;99.90;;;;;;6148174;23;20093;-81
2022/12/09 06:07:12;;;;;;;27.25;11.77;;;-1.90;99.90;;;;;;6148341;23;20017;-81
2022/12/09 06:09:38;;;;;;;22.63;10.85;;;-1.90;99.90;;;;;;6149407;23;20024;-81
2022/12/09 06:12:04;;;;;;;26.25;12.32;;;-1.90;99.90;;;;;;6148920;23;20013;-81
2022/12/09 06:14:29;;;;;;;28.20;10.65;;;-2.00;99.90;;;;;;6150397;23;20009;-81
2022/12/09 06:16:55;;;;;;;27.08;11.10;;;-1.90;99.90;;;;;;6150043;23;20341;-81
2022/12/09 06:19:21;;;;;;;25.40;10.82;;;-1.90;99.90;;;;;;6147399;23;20032;-81
2022/12/09 06:21:46;;;;;;;29.48;14.15;;;-1.90;99.90;;;;;;6147694;23;20465;-81
2022/12/09 06:24:12;;;;;;;28.08;12.40;;;-1.90;99.90;;;;;;6147740;23;20378;-81
2022/12/09 06:26:37;;;;;;;35.10;20.27;;;-1.90;99.90;;;;;;6147617;23;20018;-81
2022/12/09 06:29:03;;;;;;;26.70;12.10;;;-1.90;99.90;;;;;;6149371;23;20336;-81
2022/12/09 06:31:29;;;;;;;28.55;13.00;;;-1.90;99.90;;;;;;6150285;23;20468;-82
2022/12/09 06:33:56;;;;;;;30.08;13.93;;;-1.90;99.90;;;;;;6149760;23;20044;-82
2022/12/09 06:36:21;;;;;;;33.38;16.83;;;-1.90;99.90;;;;;;6148855;23;20009;-82
2022/12/09 06:38:47;;;;;;;30.27;12.98;;;-1.90;99.90;;;;;;6150049;23;20016;-81
2022/12/09 06:41:14;;;;;;;25.73;12.18;;;-1.80;99.90;;;;;;6151858;23;20093;-81
2022/12/09 06:43:40;;;;;;;33.47;13.43;;;-1.80;99.90;;;;;;6151276;23;20017;-82
2022/12/09 06:46:21;;;;;;;30.25;12.63;;;-1.80;99.90;;;;;;6151182;23;20579;-82
2022/12/09 06:48:47;;;;;;;26.15;12.27;;;-1.80;99.90;;;;;;6148288;23;20017;-82
2022/12/09 06:51:13;;;;;;;30.25;13.20;;;-1.70;99.90;;;;;;6149094;23;20041;-82
2022/12/09 06:53:39;;;;;;;32.17;12.90;;;-1.70;99.90;;;;;;6149121;23;20017;-81
2022/12/09 06:56:07;;;;;;;28.25;12.63;;;-1.70;99.90;;;;;;6149335;23;20286;-82
2022/12/09 06:58:33;;;;;;;31.20;14.25;;;-1.70;99.90;;;;;;6149372;23;20010;-83
2022/12/09 07:01:20;;;;;;;46.58;14.40;;;-1.60;99.90;;;;;;6148764;23;20006;-83
2022/12/09 07:03:48;;;;;;;30.10;14.55;;;-1.90;99.90;;;;;;6148430;23;20030;-83
2022/12/09 07:06:38;;;;;;;30.17;13.32;;;-1.60;99.90;;;;;;6149353;23;20017;-84
2022/12/09 07:09:07;;;;;;;32.80;13.75;;;-1.60;99.90;;;;;;6150152;23;20060;-83
2022/12/09 07:11:33;;;;;;;31.10;13.85;;;-1.60;99.90;;;;;;6149628;23;20021;-83
2022/12/09 07:13:59;;;;;;;30.42;13.07;;;-1.60;99.90;;;;;;6149023;23;20017;-84
2022/12/09 07:16:25;;;;;;;31.70;14.13;;;-1.60;99.90;;;;;;6124416;23;20341;-83
2022/12/09 07:18:51;;;;;;;31.02;13.85;;;-1.60;99.90;;;;;;6151477;23;20053;-84
2022/12/09 07:21:19;;;;;;;30.05;13.65;;;-1.60;99.90;;;;;;6150819;23;20022;-83
2022/12/09 07:23:45;;;;;;;30.35;14.27;;;-1.60;99.90;;;;;;6151043;23;20024;-83
2022/12/09 07:26:11;;;;;;;33.42;14.70;;;-1.70;99.90;;;;;;6147765;23;20049;-82
2022/12/09 07:28:38;;;;;;;32.72;14.68;;;-1.60;99.90;;;;;;6151450;23;20484;-83
2022/12/09 07:31:04;;;;;;;27.98;13.50;;;-1.60;99.90;;;;;;6147871;23;20021;-84
2022/12/09 07:33:30;;;;;;;29.48;13.93;;;-1.60;99.90;;;;;;6150492;23;20449;-83
2022/12/09 07:35:57;;;;;;;30.58;14.00;;;-1.70;99.90;;;;;;6150130;23;20049;-82
2022/12/09 07:38:24;;;;;;;30.35;14.68;;;-1.60;99.90;;;;;;6150080;23;20017;-80
2022/12/09 07:40:50;;;;;;;32.05;15.02;;;-1.70;99.90;;;;;;6149175;23;20071;-80
2022/12/09 07:43:16;;;;;;;31.80;14.77;;;-0.80;99.90;;;;;;6147248;23;20509;-83
2022/12/09 07:45:41;;;;;;;35.90;16.77;;;-1.60;99.90;;;;;;6148555;23;20056;-81
2022/12/09 07:48:08;;;;;;;40.13;17.02;;;-1.60;99.90;;;;;;6149061;23;20048;-81
2022/12/09 07:50:34;;;;;;;34.30;15.15;;;-1.60;99.90;;;;;;6150879;23;20021;-82
2022/12/09 07:53:00;;;;;;;32.13;15.00;;;-1.60;99.90;;;;;;6150686;23;20009;-81
2022/12/09 07:55:26;;;;;;;30.67;14.00;;;-1.60;99.90;;;;;;6150350;23;20029;-84
2022/12/09 07:57:52;;;;;;;34.40;14.70;;;-1.60;99.90;;;;;;6150369;23;20020;-81
2022/12/09 08:00:18;;;;;;;34.97;15.50;;;-1.70;99.90;;;;;;6148189;23;20080;-81
2022/12/09 08:02:44;;;;;;;30.35;14.95;;;-1.60;99.90;;;;;;6149929;23;20468;-81
2022/12/09 08:05:09;;;;;;;33.30;14.27;;;-1.60;99.90;;;;;;6150383;23;20010;-81
2022/12/09 08:07:35;;;;;;;31.15;14.18;;;-1.60;99.90;;;;;;6150499;23;20064;-81
2022/12/09 08:10:01;;;;;;;35.47;16.38;;;-1.60;99.90;;;;;;6148491;23;20547;-82
2022/12/09 08:12:27;;;;;;;33.63;15.32;;;-1.60;99.90;;;;;;6149284;23;20025;-81
2022/12/09 08:14:52;;;;;;;39.03;16.65;;;-1.60;99.90;;;;;;6149871;23;20048;-82
2022/12/09 08:17:18;;;;;;;35.33;15.40;;;-1.50;99.90;;;;;;6149217;23;20329;-81
2022/12/09 08:19:44;;;;;;;34.70;17.83;;;-1.50;99.90;;;;;;6149908;23;20092;-81
2022/12/09 08:22:09;;;;;;;37.63;16.77;;;-1.50;99.90;;;;;;6147694;23;20064;-81
2022/12/09 08:24:35;;;;;;;39.85;16.45;;;-1.40;99.90;;;;;;6149507;23;20020;-81
2022/12/09 08:27:00;;;;;;;40.15;18.58;;;-1.40;99.90;;;;;;6148736;23;20093;-81
2022/12/09 08:29:26;;;;;;;37.70;17.08;;;-1.40;99.90;;;;;;6146991;23;20092;-81
2022/12/09 08:31:52;;;;;;;43.28;17.52;;;-1.30;99.90;;;;;;6150341;23;20028;-81
2022/12/09 08:34:18;;;;;;;39.50;18.63;;;-1.30;99.90;;;;;;6148336;23;20028;-82
2022/12/09 08:36:43;;;;;;;41.80;18.38;;;-1.30;99.90;;;;;;6147396;23;20017;-82
2022/12/09 08:39:10;;;;;;;38.22;17.63;;;-1.30;99.90;;;;;;6149630;23;20049;-81
2022/12/09 08:41:37;;;;;;;41.88;20.17;;;-1.20;99.90;;;;;;6149906;23;20541;-81
2022/12/09 08:44:18;;;;;;;45.15;19.25;;;-1.20;99.90;;;;;;6149782;23;20097;-81
2022/12/09 08:46:46;;;;;;;41.88;18.58;;;-1.10;99.90;;;;;;6146106;23;20508;-81
2022/12/09 08:49:12;;;;;;;40.75;20.08;;;-1.10;99.90;;;;;;6149135;23;20337;-81
2022/12/09 08:51:38;;;;;;;42.45;19.35;;;-1.10;99.90;;;;;;6147124;23;20587;-81
2022/12/09 08:54:04;;;;;;;45.88;20.17;;;-1.00;99.90;;;;;;6145313;23;20018;-81
2022/12/09 08:56:30;;;;;;;42.53;19.52;;;-1.00;99.90;;;;;;6147513;23;20112;-82
2022/12/09 08:58:56;;;;;;;51.33;23.15;;;-0.90;99.90;;;;;;6145509;23;20068;-81
2022/12/09 09:01:24;;;;;;;45.42;20.30;;;-0.90;99.90;;;;;;6146314;23;20035;-81
2022/12/09 09:03:51;;;;;;;51.13;21.02;;;-0.80;99.90;;;;;;6149085;23;20025;-82
2022/12/09 09:06:17;;;;;;;46.70;21.98;;;-0.80;99.90;;;;;;6122597;23;20044;-81
2022/12/09 09:08:44;;;;;;;45.10;20.75;;;-0.70;99.90;;;;;;6151523;23;20013;-81
2022/12/09 09:11:11;;;;;;;57.15;22.02;;;-0.70;99.90;;;;;;6148539;23;20476;-81
2022/12/09 09:13:38;;;;;;;57.08;23.90;;;-0.60;99.90;;;;;;6147948;23;20068;-81
2022/12/09 09:16:07;;;;;;;54.30;22.70;;;-0.50;99.90;;;;;;6149718;23;20006;-82
2022/12/09 09:18:33;;;;;;;64.40;25.75;;;-0.40;99.90;;;;;;6151935;23;20018;-82
2022/12/09 09:20:58;;;;;;;70.55;26.55;;;-0.40;99.90;;;;;;6148065;23;20433;-81
2022/12/09 09:23:24;;;;;;;60.80;23.25;;;-0.30;99.90;;;;;;6149403;23;20092;-81
2022/12/09 09:26:10;;;;;;;67.70;26.15;;;-0.30;99.90;;;;;;6149594;23;20037;-81
2022/12/09 09:28:36;;;;;;;57.95;23.70;;;-0.30;99.90;;;;;;6148110;23;20105;-81
2022/12/09 09:31:06;;;;;;;67.55;25.70;;;-0.30;99.90;;;;;;6147394;23;20485;-81
2022/12/09 09:33:31;;;;;;;63.28;26.13;;;-0.30;99.90;;;;;;6150632;23;20052;-80
2022/12/09 09:35:59;;;;;;;64.18;25.65;;;-0.30;99.90;;;;;;6150283;23;20329;-82
2022/12/09 09:38:26;;;;;;;71.15;26.17;;;-0.20;99.90;;;;;;6149058;23;20014;-81
2022/12/09 09:40:52;;;;;;;73.15;31.52;;;-0.20;99.90;;;;;;6149316;23;20144;-81
2022/12/09 09:43:22;;;;;;;87.63;25.42;;;-0.10;99.90;;;;;;6150063;23;20536;-81
2022/12/09 09:45:49;;;;;;;67.38;21.70;;;0.00;99.90;;;;;;6147699;23;20045;-81
2022/12/09 09:48:18;;;;;;;63.83;23.45;;;0.10;99.90;;;;;;6149471;23;20085;-80
2022/12/09 09:50:59;;;;;;;59.63;23.58;;;0.10;99.90;;;;;;6149501;23;20112;-81
2022/12/09 09:53:33;;;;;;;88.30;21.95;;;0.10;99.90;;;;;;6149134;23;20018;-81
2022/12/09 09:56:05;;;;;;;54.67;22.47;;;0.10;99.90;;;;;;6148639;23;20021;-82
2022/12/09 09:59:00;;;;;;;53.53;20.15;;;0.20;99.90;;;;;;6148333;23;20021;-82
2022/12/09 10:01:32;;;;;;;71.97;21.88;;;0.20;99.90;;;;;;6087932;23;20056;-81
2022/12/09 10:04:01;;;;;;;59.80;28.05;;;0.30;99.90;;;;;;6147878;23;20472;-81
2022/12/09 10:06:45;;;;;;;51.13;22.00;;;0.40;99.90;;;;;;6149780;23;20465;-81
2022/12/09 10:09:28;;;;;;;62.45;29.15;;;0.40;99.90;;;;;;6149832;23;20084;-81
2022/12/09 10:12:05;;;;;;;51.00;19.17;;;0.40;99.90;;;;;;6148423;23;20017;-83
2022/12/09 10:14:54;;;;;;;54.72;20.77;;;0.50;99.90;;;;;;6146837;23;20032;-80
2022/12/09 10:17:32;;;;;;;57.28;19.10;;;0.50;99.90;;;;;;6148776;23;20100;-80
2022/12/09 10:20:12;;;;;;;45.65;18.50;;;0.50;99.90;;;;;;6149092;23;20101;-80
2022/12/09 10:22:46;;;;;;;52.13;17.98;;;0.50;99.90;;;;;;6148145;23;20080;-81
2022/12/09 10:25:21;;;;;;;36.90;17.50;;;0.50;99.90;;;;;;6147688;23;20109;-81
2022/12/09 10:27:56;;;;;;;71.35;19.92;;;0.50;99.90;;;;;;6149886;23;20017;-80
2022/12/09 10:30:22;;;;;;;36.88;17.73;;;0.50;99.90;;;;;;6148075;23;20028;-81
2022/12/09 10:32:47;;;;;;;43.72;17.25;;;0.50;99.90;;;;;;6148627;23;20072;-80
2022/12/09 10:35:22;;;;;;;44.10;19.58;;;0.50;99.90;;;;;;6148694;23;20013;-81
2022/12/09 10:37:52;;;;;;;93.53;19.80;;;0.50;99.90;;;;;;6149730;23;20017;-81
2022/12/09 10:40:44;;;;;;;71.65;19.73;;;0.50;99.90;;;;;;6145601;23;20088;-80
2022/12/09 10:43:34;;;;;;;51.75;19.02;;;0.60;99.90;;;;;;6130860;23;20442;-81
2022/12/09 10:46:06;;;;;;;52.33;20.38;;;0.60;99.90;;;;;;6146440;23;20021;-80
2022/12/09 10:48:45;;;;;;;42.58;19.98;;;0.70;99.90;;;;;;6147790;23;20021;-81
2022/12/09 10:51:20;;;;;;;40.78;18.95;;;0.60;99.90;;;;;;6149183;23;20021;-80
2022/12/09 10:53:55;;;;;;;46.17;18.25;;;0.60;99.90;;;;;;6146753;23;20041;-80
2022/12/09 10:56:30;;;;;;;48.53;20.27;;;0.60;99.90;;;;;;6149184;23;20056;-80
2022/12/09 10:59:19;;;;;;;48.40;18.65;;;0.70;99.90;;;;;;6146848;23;20464;-81
2022/12/09 11:01:58;;;;;;;39.85;17.85;;;0.70;99.90;;;;;;6149136;23;20096;-81
2022/12/09 11:04:33;;;;;;;41.95;19.75;;;0.70;99.90;;;;;;6149930;23;20052;-81
2022/12/09 11:07:11;;;;;;;46.95;20.35;;;0.80;99.90;;;;;;6149623;23;20056;-81
2022/12/09 11:09:41;;;;;;;50.47;21.67;;;0.80;99.90;;;;;;6148695;23;20048;-81
2022/12/09 11:12:17;;;;;;;42.65;20.23;;;0.80;99.90;;;;;;6149497;23;20032;-82
2022/12/09 11:14:54;;;;;;;38.50;18.50;;;0.80;99.90;;;;;;6147890;23;20055;-81
2022/12/09 11:17:31;;;;;;;45.28;19.48;;;1.10;99.90;;;;;;6148376;23;20488;-81
2022/12/09 11:20:13;;;;;;;76.97;19.13;;;0.80;99.90;;;;;;6146413;23;20072;-81
2022/12/09 11:22:40;;;;;;;67.28;20.35;;;0.80;99.90;;;;;;6146152;23;20096;-80
2022/12/09 11:25:22;;;;;;;56.88;18.83;;;0.80;99.90;;;;;;6146803;23;20021;-81
2022/12/09 11:27:53;;;;;;;37.17;18.13;;;0.80;99.90;;;;;;6147451;23;20024;-80
2022/12/09 11:30:23;;;;;;;39.40;19.75;;;0.80;99.90;;;;;;6147863;23;20013;-80
2022/12/09 11:33:01;;;;;;;53.38;19.25;;;0.80;99.90;;;;;;6148393;23;20048;-80
2022/12/09 11:35:35;;;;;;;43.47;20.55;;;0.80;99.90;;;;;;6145901;23;20021;-81
2022/12/09 11:38:23;;;;;;;40.42;18.17;;;0.80;99.90;;;;;;6148812;23;20025;-80
2022/12/09 11:41:10;;;;;;;40.70;19.20;;;0.90;99.90;;;;;;6133034;23;20021;-81
2022/12/09 11:43:50;;;;;;;41.60;18.90;;;0.90;99.90;;;;;;6149040;23;20029;-80
2022/12/09 11:46:25;;;;;;;54.05;23.15;;;0.90;99.90;;;;;;6148357;23;20151;-81
2022/12/09 11:49:01;;;;;;;50.47;21.02;;;0.90;99.90;;;;;;6146831;23;20028;-80
2022/12/09 11:51:33;;;;;;;42.55;20.90;;;0.90;99.90;;;;;;6148182;23;20017;-80
2022/12/09 11:54:14;;;;;;;42.20;20.13;;;0.90;99.90;;;;;;6151252;23;20013;-80
2022/12/09 11:56:40;;;;;;;48.90;20.52;;;0.90;99.90;;;;;;6150699;23;20018;-80
2022/12/09 11:59:12;;;;;;;37.67;18.40;;;0.90;99.90;;;;;;6149282;23;20101;-81
2022/12/09 12:01:51;;;;;;;45.05;20.58;;;0.90;99.90;;;;;;6150235;23;20009;-80
2022/12/09 12:04:25;;;;;;;45.80;18.95;;;1.00;99.90;;;;;;6151178;23;20020;-80
2022/12/09 12:07:01;;;;;;;40.40;19.80;;;1.00;99.90;;;;;;6150026;23;20048;-80
2022/12/09 12:09:34;;;;;;;40.28;19.30;;;0.90;99.90;;;;;;6150625;23;20020;-80
2022/12/09 12:12:12;;;;;;;46.53;19.43;;;1.10;99.90;;;;;;6151323;23;20109;-81
2022/12/09 12:14:41;;;;;;;41.15;19.35;;;0.90;99.90;;;;;;6150162;23;20068;-81
2022/12/09 12:17:16;;;;;;;58.53;20.42;;;0.90;99.90;;;;;;6147850;23;20025;-81
2022/12/09 12:19:46;;;;;;;40.17;19.67;;;0.90;99.90;;;;;;6150888;23;20021;-80
2022/12/09 12:22:40;;;;;;;44.35;22.00;;;0.90;99.90;;;;;;6150668;23;20057;-80
2022/12/09 12:25:40;;;;;;;40.05;18.05;;;0.90;99.90;;;;;;6035113;23;20019;-80
2022/12/09 12:28:32;;;;;;;42.63;20.27;;;0.90;99.90;;;;;;6034931;23;20094;-80
2022/12/09 12:31:13;;;;;;;46.65;21.20;;;0.90;99.90;;;;;;6058707;23;20070;-80
2022/12/09 12:34:03;;;;;;;49.60;23.15;;;0.90;99.90;;;;;;6060317;23;20399;-80
2022/12/09 12:36:29;;;;;;;40.47;19.55;;;0.90;99.90;;;;;;6059607;23;20065;-80
2022/12/09 12:39:35;;;;;;;41.35;19.20;;;1.00;99.90;;;;;;6035780;23;20121;-80
2022/12/09 12:46:16;;;;;;;42.97;20.20;;;1.00;99.90;;;;;;5892611;24;20050;-80
2022/12/09 12:49:11;;;;;;;41.15;20.67;;;1.00;99.90;;;;;;5892445;24;20090;-80
2022/12/09 12:52:01;;;;;;;39.55;19.73;;;1.00;99.90;;;;;;5891633;24;20385;-80